• Join FlightAware (Why Join?)
  • Login
  • US Flag 
11:20PM EDT


 

Airport Tracker/Info


-or-


 

Live Flight TrackerFlight Track Log ✈ OPT404 ✈ 06-Jun-2013 ✈ KBRO - KDAL

Flight Track Log - Related Links

Times and Time Zones

All times are in EDT time to prevent confusion due to time zone crossing. See the OPT404 flight status page for this flight to view local times or setup timezone preferences in your user account.

Time Position Orientation Groundspeed Altitude Reporting Facility
EDT Latitude Longitude Course Direction KTS MPH feet Rate Location/Type
10:48PM 25.9036 -97.3964 78° East 150 173 2,100  Level Houston Center
10:49PM 25.9639 -97.3903 North 242 278 4,800 2,640 Climbing Houston Center
10:50PM 26.0336 -97.3925 358° North 259 298 7,500 2,340 Climbing Houston Center
10:52PM 26.1264 -97.3939 359° North 284 327 9,900 2,160 Climbing Houston Center
10:53PM 26.2122 -97.4044 354° North 314 361 12,200 2,520 Climbing Houston Center
10:54PM 26.3000 -97.4303 345° North 306 352 15,100 2,460 Climbing Houston Center
10:55PM 26.3808 -97.4531 346° North 302 348 17,300 2,100 Climbing Houston Center
10:56PM 26.4667 -97.4794 345° North 319 367 19,400 1,800 Climbing Houston Center
10:57PM 26.5578 -97.5064 345° North 336 387 21,000 1,800 Climbing Houston Center
10:58PM 26.6581 -97.5372 345° North 345 397 23,100 1,740 Climbing Houston Center
10:59PM 26.7525 -97.5661 345° North 356 410 24,600 1,320 Climbing Houston Center
11:00PM 26.8453 -97.5950 344° North 371 427 25,900 1,500 Climbing Houston Center
11:01PM 26.9508 -97.6228 347° North 387 445 27,700 1,620 Climbing Houston Center
11:02PM 27.0511 -97.6531 345° North 374 430 29,200 1,500 Climbing Houston Center
11:03PM 27.1564 -97.6875 344° North 367 422 30,800 1,500 Climbing Houston Center
11:04PM 27.2547 -97.7178 345° North 363 418 32,300 1,080 Climbing Houston Center
11:05PM 27.3594 -97.7503 345° North 386 444 33,000 300 Climbing Houston Center
11:06PM 27.4678 -97.7822 345° North 399 459 33,000  Level Houston Center
11:07PM 27.5758 -97.8150 345° North 402 463 33,000  Level Houston Center
11:08PM 27.6825 -97.8481 345° North 399 459 33,100 720 Climbing Houston Center
11:09PM 27.7728 -97.9142 327° Northwest 389 448 34,500 1,260 Climbing Houston Center
11:10PM 27.8558 -97.9897 321° Northwest 384 442 35,700 780 Climbing Houston Center
11:11PM 27.9403 -98.0681 321° Northwest 389 448 36,200 840 Climbing Houston Center
11:12PM 28.0431 -98.1608 321° Northwest 394 453 37,500 1,080 Climbing Houston Center
11:13PM 28.1489 -98.2003 342° North 403 464 38,500 960 Climbing Houston Center
11:14PM 28.2636 -98.2211 351° North 413 475 39,500 960 Climbing Houston Center
11:15PM 28.3750 -98.2389 352° North 407 468 40,500 960 Climbing Houston Center
11:16PM 28.4928 -98.2600 351° North 401 461 41,500 960 Climbing Houston Center
11:17PM 28.6014 -98.2797 351° North 395 455 42,500 720 Climbing Houston Center
11:18PM 28.7142 -98.2989 352° North 388 447 43,000 240 Climbing Houston Center
11:19PM 28.8222 -98.3183 351° North 393 452 43,000  Level Houston Center
11:20PM 28.9311 -98.3369 351° North 395 455 43,000  Level Houston Center
11:21PM 29.0469 -98.3569 351° North 388 447 43,000  Level Houston Center
11:22PM 29.1536 -98.3758 351° North 387 445 43,000  Level Houston Center
11:23PM 29.2608 -98.3792 358° North 385 443 43,000  Level Houston Center
11:24PM 29.3686 -98.3686 North 388 447 43,000  Level Houston Center
11:25PM 29.4758 -98.3569 North 387 445 43,000  Level Houston Center
11:26PM 29.5728 -98.3547 North 393 452 43,000  Level Houston Center
11:27PM 29.7014 -98.3411 North 397 457 43,000 -420 Level Houston Center
11:28PM 29.8089 -98.3322 North 388 447 42,200 -900 Descending Houston Center
11:29PM 29.9306 -98.3219 North 406 467 41,200 -1,020 Descending Houston Center
11:30PM 30.0475 -98.3114 North 419 482 40,200 -1,080 Descending Houston Center
11:31PM 30.1642 -98.3014 North 419 482 39,100 -600 Descending Houston Center
11:32PM 30.2783 -98.2919 North 411 473 39,000 -60 Descending Houston Center
11:33PM 30.3897 -98.2822 North 396 456 39,000  Level Houston Center
11:34PM 30.5003 -98.2725 North 393 452 39,000  Level Houston Center
11:35PM 30.6128 -98.2631 North 397 457 39,000  Level Houston Center
11:36PM 30.7286 -98.2525 North 407 468 39,000  Level Houston Center
11:37PM 30.8453 -98.2431 North 412 474 39,000  Level Houston Center
11:38PM 30.9619 -98.2322 North 413 475 39,000 -300 Level Houston Center
11:39PM 31.0783 -98.2222 North 412 474 38,400 -660 Descending Houston Center
11:40PM 31.1397 -98.2022 16° North 429 494 38,000 -660 Descending Fort Worth Center
11:41PM 31.2467 -98.1350 28° Northeast 422 486 37,400 -600 Descending Fort Worth Center
11:42PM 31.3472 -98.0678 30° Northeast 417 480 36,800 -600 Descending Fort Worth Center
11:43PM 31.4456 -98.0075 28° Northeast 405 466 36,200 -600 Descending Fort Worth Center
11:44PM 31.5442 -97.9447 28° Northeast 399 459 35,600 -1,920 Descending Fort Worth Center
11:45PM 31.6592 -97.8772 27° Northeast 399 459 32,400 -3,420 Descending Fort Worth Center
11:46PM 31.7681 -97.8092 28° Northeast 421 484 28,800 -3,540 Descending Fort Worth Center
11:47PM 31.8683 -97.7461 28° Northeast 423 487 25,400 -3,240 Descending Fort Worth Center
11:48PM 31.9625 -97.6875 28° Northeast 389 448 22,400 -2,880 Descending Fort Worth Center
11:49PM 32.0461 -97.6339 29° Northeast 353 406 19,700 -2,760 Descending Fort Worth Center
11:50PM 32.1256 -97.5828 29° Northeast 330 380 16,900 -2,640 Descending Fort Worth Center
11:51PM 32.2050 -97.5336 28° Northeast 319 367 14,500 -2,400 Descending Fort Worth Center
11:52PM 32.2781 -97.4847 29° Northeast 306 352 12,100 -1,500 Descending Fort Worth Center
11:53PM 32.3344 -97.4233 43° Northeast 281 323 11,600 -1,020 Descending Fort Worth Center
11:54PM 32.3844 -97.3494 51° Northeast 276 318 10,100 -840 Descending Fort Worth Center
11:55PM 32.4303 -97.2806 52° Northeast 276 318 10,000 -60 Descending Fort Worth Center
11:56PM 32.4825 -97.2067 50° Northeast 281 323 10,000 -240 Level Fort Worth Center
11:57PM 32.5242 -97.1325 56° Northeast 288 331 9,600 -1,020 Descending Fort Worth Center
11:58PM 32.5656 -97.0436 61° Northeast 278 320 8,000 -840 Descending Fort Worth Center
11:59PM 32.5947 -96.9869 59° Northeast 245 282 8,000 -300 Level Fort Worth Center
12:00AM 32.6319 -96.9175 58° Northeast 229 264 7,500 -960 Descending Fort Worth Center
12:00AM 32.6500 -96.8833 58° Northeast 226 260 6,600 -1,860 Descending Dallas / Fort Worth TRACON
12:02AM 32.6833 -96.8000 65° Northeast 228 262 4,600 -1,680 Descending Dallas / Fort Worth TRACON
12:02AM 32.7167 -96.7500 52° Northeast 193 222 3,300 -900 Descending Dallas / Fort Worth TRACON
12:03AM 32.7500 -96.7333 23° Northeast 132 152 3,000 -480 Descending Dallas / Fort Worth TRACON
12:05AM 32.7667 -96.7667 301° West 135 155 2,300 -720 Descending Dallas / Fort Worth TRACON
12:06AM 32.8000 -96.8000 320° Northwest 127 146 1,500 -780 Descending Dallas / Fort Worth TRACON
12:07AM 32.8167 -96.8333 301° West 112 129 800 -720 Descending Dallas / Fort Worth TRACON